createdAt,value
2023-01-29T00:00:10.182Z,19.30
2023-01-29T00:01:11.991Z,18.00
2023-01-29T00:02:13.676Z,17.50
2023-01-29T00:03:16.199Z,17.73
2023-01-29T00:04:18.066Z,19.63
2023-01-29T00:05:28.340Z,18.35
2023-01-29T00:06:30.819Z,18.02
2023-01-29T00:07:32.595Z,17.70
2023-01-29T00:08:35.456Z,18.65
2023-01-29T00:09:37.177Z,17.93
2023-01-29T00:10:38.751Z,16.77
2023-01-29T00:11:40.475Z,18.17
2023-01-29T00:12:42.112Z,18.83
2023-01-29T00:13:44.173Z,17.80
2023-01-29T00:14:45.783Z,17.90
2023-01-29T00:15:55.019Z,17.83
2023-01-29T00:16:56.689Z,17.08
2023-01-29T00:17:58.331Z,18.35
2023-01-29T00:19:01.788Z,17.17
2023-01-29T00:20:03.438Z,18.13
2023-01-29T00:21:11.936Z,17.15
2023-01-29T00:22:13.579Z,17.58
2023-01-29T00:23:15.556Z,18.38
2023-01-29T00:24:17.252Z,18.42
2023-01-29T00:25:18.866Z,17.92
2023-01-29T00:26:21.203Z,17.05
2023-01-29T00:27:22.803Z,18.05
2023-01-29T00:28:24.384Z,17.88
2023-01-29T00:29:26.839Z,16.15
2023-01-29T00:30:28.440Z,17.27
2023-01-29T00:31:30.636Z,17.20
2023-01-29T00:32:32.453Z,17.30
2023-01-29T00:33:34.064Z,18.35
2023-01-29T00:34:36.187Z,17.90
2023-01-29T00:35:39.641Z,18.33
2023-01-29T00:36:41.330Z,16.98
2023-01-29T00:37:42.906Z,18.60
2023-01-29T00:38:44.685Z,17.67
2023-01-29T00:39:48.362Z,18.52
2023-01-29T00:41:08.507Z,17.92
2023-01-29T00:42:28.399Z,17.92
2023-01-29T00:43:48.704Z,18.15
2023-01-29T00:44:59.179Z,15.77
2023-01-29T00:46:00.809Z,18.93
2023-01-29T00:47:02.612Z,16.92
2023-01-29T00:48:04.578Z,17.88
2023-01-29T00:49:06.455Z,18.73
2023-01-29T00:50:11.633Z,18.10
2023-01-29T00:51:13.227Z,16.33
2023-01-29T00:52:26.657Z,17.48
2023-01-29T00:53:28.353Z,17.70
2023-01-29T00:54:31.894Z,17.38
2023-01-29T00:55:34.503Z,18.00
2023-01-29T00:56:36.658Z,17.25
2023-01-29T00:57:38.612Z,16.35
2023-01-29T00:58:40.208Z,17.10
2023-01-29T00:59:41.879Z,16.10
2023-01-29T01:00:43.521Z,17.17
2023-01-29T01:02:03.729Z,16.70
2023-01-29T01:03:08.102Z,16.95
2023-01-29T01:04:10.558Z,16.70
2023-01-29T01:05:18.327Z,17.23
2023-01-29T01:06:20.207Z,15.82
2023-01-29T01:07:21.829Z,16.42
2023-01-29T01:08:42.118Z,17.40
2023-01-29T01:10:01.930Z,16.42
2023-01-29T01:11:05.275Z,16.25
2023-01-29T01:12:06.868Z,15.63
2023-01-29T01:13:08.472Z,16.60
2023-01-29T01:14:10.063Z,17.42
2023-01-29T01:15:11.907Z,16.48
2023-01-29T01:16:14.792Z,15.82
2023-01-29T01:17:16.485Z,17.17
2023-01-29T01:18:20.640Z,16.40
2023-01-29T01:19:22.267Z,15.18
2023-01-29T01:20:24.761Z,16.98
2023-01-29T01:21:26.368Z,15.38
2023-01-29T01:22:28.048Z,16.42
2023-01-29T01:23:29.648Z,16.63
2023-01-29T01:24:31.620Z,16.85
2023-01-29T01:25:33.230Z,15.93
2023-01-29T01:26:35.105Z,16.33
2023-01-29T01:27:41.008Z,16.70
2023-01-29T01:28:42.639Z,16.40
2023-01-29T01:29:44.224Z,16.00
2023-01-29T01:30:45.981Z,15.55
2023-01-29T01:31:47.722Z,16.33
2023-01-29T01:32:49.461Z,16.27
2023-01-29T01:33:51.703Z,15.13
2023-01-29T01:34:53.746Z,15.95
2023-01-29T01:35:55.430Z,16.05
2023-01-29T01:36:57.225Z,15.48
2023-01-29T01:37:58.807Z,16.20
2023-01-29T01:39:00.449Z,15.95
2023-01-29T01:40:03.163Z,16.80
2023-01-29T01:41:04.743Z,15.13
2023-01-29T01:42:11.113Z,16.07
2023-01-29T01:43:12.779Z,15.40
2023-01-29T01:44:50.551Z,15.00
2023-01-29T01:45:52.270Z,15.98
2023-01-29T01:46:53.905Z,16.80
2023-01-29T01:48:25.072Z,18.52
2023-01-29T01:49:26.756Z,15.75
2023-01-29T01:50:40.323Z,16.48
2023-01-29T01:51:49.686Z,17.02
2023-01-29T01:52:53.361Z,15.65
2023-01-29T01:54:02.095Z,15.50
2023-01-29T01:55:03.908Z,16.02
2023-01-29T01:56:09.280Z,17.83
2023-01-29T01:57:16.049Z,17.33
2023-01-29T01:58:26.054Z,16.95
2023-01-29T01:59:27.650Z,17.30
2023-01-29T02:00:29.315Z,17.30
2023-01-29T02:01:30.894Z,16.73
2023-01-29T02:02:50.812Z,17.65
2023-01-29T02:04:32.363Z,16.17
2023-01-29T02:05:53.007Z,16.75
2023-01-29T02:07:13.388Z,14.90
2023-01-29T02:08:33.892Z,15.63
2023-01-29T02:09:39.612Z,14.70
2023-01-29T02:10:46.286Z,14.57
2023-01-29T02:11:47.827Z,15.90
2023-01-29T02:12:49.446Z,15.48
2023-01-29T02:13:53.846Z,14.35
2023-01-29T02:14:55.450Z,14.95
2023-01-29T02:15:57.110Z,13.57
2023-01-29T02:17:01.414Z,15.95
2023-01-29T02:18:03.142Z,13.93
2023-01-29T02:19:06.127Z,13.98
2023-01-29T02:20:29.453Z,14.03
2023-01-29T02:21:42.926Z,14.80
2023-01-29T02:23:05.888Z,14.25
2023-01-29T02:24:10.665Z,12.88
2023-01-29T02:25:26.451Z,13.73
2023-01-29T02:26:52.729Z,13.88
2023-01-29T02:28:07.433Z,12.90
2023-01-29T02:29:22.759Z,11.90
2023-01-29T02:30:36.534Z,13.90
2023-01-29T02:31:45.185Z,12.60
2023-01-29T02:32:58.727Z,12.27
2023-01-29T02:34:30.203Z,12.25
2023-01-29T02:35:38.297Z,12.55
2023-01-29T02:36:48.793Z,12.32
2023-01-29T02:38:27.135Z,12.50
2023-01-29T02:39:37.997Z,11.35
2023-01-29T02:40:54.864Z,11.88
2023-01-29T02:42:12.019Z,12.43
2023-01-29T02:43:19.326Z,12.90
2023-01-29T02:44:24.799Z,12.10
2023-01-29T02:45:53.717Z,12.65
2023-01-29T02:46:58.752Z,11.88
2023-01-29T02:48:01.540Z,12.68
2023-01-29T02:49:15.528Z,12.35
2023-01-29T02:50:22.519Z,10.98
2023-01-29T02:51:34.666Z,13.00
2023-01-29T02:52:59.644Z,12.18
2023-01-29T02:54:33.671Z,11.82
2023-01-29T02:55:38.795Z,12.15
2023-01-29T02:57:02.549Z,10.90
2023-01-29T02:58:33.506Z,11.80
2023-01-29T02:59:38.472Z,11.70
2023-01-29T03:00:42.867Z,12.18
2023-01-29T03:01:58.615Z,12.57
2023-01-29T03:03:17.931Z,11.77
2023-01-29T03:04:26.946Z,11.75
2023-01-29T03:05:34.256Z,12.77
2023-01-29T03:06:38.888Z,11.00
2023-01-29T03:07:44.749Z,11.05
2023-01-29T03:08:50.242Z,11.18
2023-01-29T03:09:51.894Z,11.60
2023-01-29T03:10:57.803Z,11.65
2023-01-29T03:12:19.965Z,11.05
2023-01-29T03:13:47.902Z,10.83
2023-01-29T03:15:08.622Z,10.85
2023-01-29T03:16:19.308Z,10.93
2023-01-29T03:17:22.381Z,10.98
2023-01-29T03:18:27.825Z,10.05
2023-01-29T03:19:36.300Z,10.77
2023-01-29T03:21:26.205Z,10.60
2023-01-29T03:22:27.960Z,10.30
2023-01-29T03:23:50.194Z,10.48
2023-01-29T03:25:15.548Z,11.20
2023-01-29T03:26:35.955Z,10.65
2023-01-29T03:28:04.510Z,9.52
2023-01-29T03:29:24.415Z,9.18
2023-01-29T03:30:44.834Z,10.52
2023-01-29T03:32:08.284Z,10.55
2023-01-29T03:33:10.611Z,9.10
2023-01-29T03:34:24.795Z,10.45
2023-01-29T03:35:36.862Z,10.60
2023-01-29T03:36:45.899Z,10.73
2023-01-29T03:37:48.069Z,9.93
2023-01-29T03:38:49.749Z,10.23
2023-01-29T03:39:51.324Z,10.68
2023-01-29T03:40:54.985Z,9.57
2023-01-29T03:42:01.354Z,9.95
2023-01-29T03:43:08.466Z,9.80
2023-01-29T03:44:12.980Z,10.27
2023-01-29T03:45:32.103Z,9.55
2023-01-29T03:46:52.345Z,9.90
2023-01-29T03:48:35.533Z,9.35
2023-01-29T03:50:18.549Z,9.32
2023-01-29T03:51:40.702Z,9.07
2023-01-29T03:53:06.933Z,9.18
2023-01-29T03:54:26.956Z,8.38
2023-01-29T03:55:43.703Z,8.65
2023-01-29T03:57:07.094Z,9.20
2023-01-29T03:58:17.806Z,8.80
2023-01-29T03:59:33.918Z,8.40
2023-01-29T04:00:40.041Z,8.73
2023-01-29T04:02:03.279Z,8.27
2023-01-29T04:03:19.769Z,8.70
2023-01-29T04:04:29.018Z,8.27
2023-01-29T04:05:38.476Z,9.43
2023-01-29T04:06:40.802Z,8.55
2023-01-29T04:07:42.401Z,8.27
2023-01-29T04:08:52.667Z,8.43
2023-01-29T04:10:00.928Z,8.57
2023-01-29T04:11:06.117Z,7.60
2023-01-29T04:12:09.370Z,8.63
2023-01-29T04:13:11.864Z,9.43
2023-01-29T04:14:13.484Z,8.65
2023-01-29T04:15:15.885Z,8.95
2023-01-29T04:16:20.986Z,8.93
2023-01-29T04:17:25.081Z,9.97
2023-01-29T04:18:27.233Z,8.45
2023-01-29T04:19:28.922Z,9.20
2023-01-29T04:20:30.539Z,8.85
2023-01-29T04:21:32.949Z,10.25
2023-01-29T04:22:36.878Z,9.32
2023-01-29T04:23:38.480Z,9.38
2023-01-29T04:24:40.761Z,9.85
2023-01-29T04:25:45.085Z,9.80
2023-01-29T04:27:07.365Z,9.65
2023-01-29T04:28:22.233Z,8.65
2023-01-29T04:29:30.235Z,9.57
2023-01-29T04:30:49.538Z,8.88
2023-01-29T04:32:03.900Z,9.43
2023-01-29T04:33:16.434Z,8.85
2023-01-29T04:34:36.483Z,8.30
2023-01-29T04:35:40.775Z,9.80
2023-01-29T04:37:38.062Z,8.95
2023-01-29T04:39:22.685Z,9.02
2023-01-29T04:40:37.678Z,8.68
2023-01-29T04:41:39.221Z,8.65
2023-01-29T04:42:50.265Z,8.93
2023-01-29T04:44:18.139Z,9.35
2023-01-29T04:45:50.349Z,8.52
2023-01-29T04:47:00.896Z,8.85
2023-01-29T04:48:11.396Z,7.87
2023-01-29T04:49:23.915Z,9.52
2023-01-29T04:50:47.574Z,8.30
2023-01-29T04:52:01.993Z,8.40
2023-01-29T04:53:18.623Z,8.23
2023-01-29T04:54:49.913Z,9.13
2023-01-29T04:55:56.910Z,8.30
2023-01-29T04:57:16.373Z,8.38
2023-01-29T04:58:25.141Z,9.50
2023-01-29T04:59:33.387Z,9.20
2023-01-29T05:00:40.508Z,9.05
2023-01-29T05:01:42.750Z,9.02
2023-01-29T05:02:44.368Z,9.27
2023-01-29T05:03:48.279Z,9.90
2023-01-29T05:04:50.788Z,10.13
2023-01-29T05:05:52.839Z,9.70
2023-01-29T05:06:54.553Z,10.07
2023-01-29T05:07:56.197Z,10.13
2023-01-29T05:08:57.799Z,9.88
2023-01-29T05:09:59.477Z,9.48
2023-01-29T05:11:01.091Z,10.73
2023-01-29T05:12:02.698Z,9.60
2023-01-29T05:13:05.083Z,10.85
2023-01-29T05:14:07.309Z,9.48
2023-01-29T05:15:11.607Z,10.50
2023-01-29T05:16:25.389Z,9.83
2023-01-29T05:17:27.006Z,9.77
2023-01-29T05:18:29.524Z,9.40
2023-01-29T05:19:31.181Z,10.23
2023-01-29T05:20:33.363Z,9.95
2023-01-29T05:21:35.023Z,9.02
2023-01-29T05:22:37.949Z,10.10
2023-01-29T05:23:39.565Z,9.50
2023-01-29T05:24:41.232Z,9.52
2023-01-29T05:25:42.926Z,10.30
2023-01-29T05:27:03.702Z,10.82
2023-01-29T05:28:11.889Z,8.77
2023-01-29T05:29:13.503Z,9.55
2023-01-29T05:30:15.622Z,10.23
2023-01-29T05:31:17.611Z,9.00
2023-01-29T05:32:19.274Z,8.43
2023-01-29T05:33:30.829Z,9.35
2023-01-29T05:34:32.429Z,9.15
2023-01-29T05:35:34.849Z,9.13
2023-01-29T05:36:36.537Z,9.67
2023-01-29T05:37:38.186Z,9.63
2023-01-29T05:38:39.775Z,9.20
2023-01-29T05:39:41.378Z,8.80
2023-01-29T05:40:43.122Z,10.35
2023-01-29T05:41:44.733Z,9.13
2023-01-29T05:42:46.478Z,8.57
2023-01-29T05:43:48.133Z,9.85
2023-01-29T05:44:49.809Z,8.70
2023-01-29T05:45:55.262Z,9.23
2023-01-29T05:46:56.942Z,8.33
2023-01-29T05:47:59.136Z,7.82
2023-01-29T05:49:00.738Z,8.82
2023-01-29T05:50:02.342Z,8.18
2023-01-29T05:51:04.526Z,8.95
2023-01-29T05:52:06.223Z,8.32
2023-01-29T05:53:09.055Z,7.97
2023-01-29T05:54:12.725Z,8.40
2023-01-29T05:55:14.392Z,8.82
2023-01-29T05:56:16.027Z,8.50
2023-01-29T05:57:17.621Z,8.33
2023-01-29T05:58:19.839Z,8.45
2023-01-29T05:59:21.591Z,7.80
2023-01-29T06:00:23.415Z,8.38
2023-01-29T06:01:25.693Z,8.20
2023-01-29T06:02:30.408Z,8.40
2023-01-29T06:03:32.007Z,8.10
2023-01-29T06:04:33.666Z,8.25
2023-01-29T06:05:39.147Z,7.93
2023-01-29T06:06:41.422Z,8.00
2023-01-29T06:07:45.495Z,8.45
2023-01-29T06:08:47.297Z,8.73
2023-01-29T06:09:48.963Z,7.70
2023-01-29T06:10:50.544Z,8.18
2023-01-29T06:11:52.135Z,7.43
2023-01-29T06:12:53.796Z,7.00
2023-01-29T06:13:55.483Z,7.60
2023-01-29T06:14:57.137Z,8.10
2023-01-29T06:15:58.808Z,7.40
2023-01-29T06:17:00.495Z,7.93
2023-01-29T06:18:02.202Z,7.38
2023-01-29T06:19:03.816Z,7.00
2023-01-29T06:20:06.062Z,7.80
2023-01-29T06:21:09.751Z,7.40
2023-01-29T06:22:11.360Z,7.90
2023-01-29T06:23:12.953Z,8.10
2023-01-29T06:24:14.743Z,7.55
2023-01-29T06:25:16.494Z,7.60
2023-01-29T06:26:18.173Z,7.03
2023-01-29T06:27:19.797Z,7.10
2023-01-29T06:28:21.407Z,7.57
2023-01-29T06:29:23.060Z,8.07
2023-01-29T06:30:24.725Z,7.10
2023-01-29T06:31:38.208Z,7.30
2023-01-29T06:32:40.801Z,7.75
2023-01-29T06:33:42.453Z,7.78
2023-01-29T06:34:44.089Z,7.57
2023-01-29T06:35:45.687Z,7.25
2023-01-29T06:36:47.388Z,6.57
2023-01-29T06:37:49.071Z,7.23
2023-01-29T06:38:50.675Z,7.18
2023-01-29T06:39:52.316Z,7.70
2023-01-29T06:40:53.971Z,7.10
2023-01-29T06:41:55.637Z,7.18
2023-01-29T06:42:57.297Z,7.50
2023-01-29T06:43:58.932Z,7.10
2023-01-29T06:45:00.532Z,7.43
2023-01-29T06:46:02.261Z,7.00
2023-01-29T06:47:03.942Z,6.78
2023-01-29T06:48:05.854Z,14.13
2023-01-29T06:49:07.436Z,18.23
2023-01-29T06:50:09.685Z,30.30
2023-01-29T06:51:11.331Z,13.30
2023-01-29T06:52:12.973Z,27.92
2023-01-29T06:53:14.578Z,16.90
2023-01-29T06:54:16.167Z,15.75
2023-01-29T06:55:17.820Z,7.72
2023-01-29T06:56:19.464Z,7.50
2023-01-29T06:57:21.071Z,7.32
2023-01-29T06:58:22.662Z,6.60
2023-01-29T06:59:24.275Z,10.60
2023-01-29T07:00:25.926Z,9.32
2023-01-29T07:01:36.142Z,13.95
2023-01-29T07:02:38.147Z,9.85
2023-01-29T07:03:41.583Z,12.77
2023-01-29T07:04:43.375Z,7.43
2023-01-29T07:05:53.018Z,9.75
2023-01-29T07:06:54.820Z,7.40
2023-01-29T07:07:56.501Z,8.00
2023-01-29T07:08:58.138Z,8.20
2023-01-29T07:09:59.855Z,8.45
2023-01-29T07:11:01.658Z,7.80
2023-01-29T07:12:04.643Z,7.97
2023-01-29T07:13:06.298Z,7.47
2023-01-29T07:14:08.044Z,7.60
2023-01-29T07:15:10.029Z,8.00
2023-01-29T07:16:11.631Z,7.47
2023-01-29T07:17:13.288Z,6.85
2023-01-29T07:18:14.916Z,8.13
2023-01-29T07:19:16.810Z,6.85
2023-01-29T07:20:18.937Z,7.68
2023-01-29T07:21:20.725Z,7.70
2023-01-29T07:22:22.348Z,6.57
2023-01-29T07:23:23.985Z,7.85
2023-01-29T07:24:25.680Z,7.97
2023-01-29T07:25:27.404Z,12.18
2023-01-29T07:26:29.174Z,9.27
2023-01-29T07:27:30.780Z,8.57
2023-01-29T07:28:32.398Z,7.68
2023-01-29T07:29:34.041Z,8.98
2023-01-29T07:30:35.911Z,8.32
2023-01-29T07:31:37.633Z,7.68
2023-01-29T07:32:39.418Z,8.32
2023-01-29T07:33:43.292Z,9.35
2023-01-29T07:34:44.902Z,7.80
2023-01-29T07:35:46.507Z,7.65
2023-01-29T07:36:48.127Z,9.38
2023-01-29T07:37:50.446Z,10.70
2023-01-29T07:38:52.095Z,12.35
2023-01-29T07:39:53.747Z,16.83
2023-01-29T07:40:55.493Z,43.17
2023-01-29T07:41:57.225Z,30.42
2023-01-29T07:43:00.005Z,12.63
2023-01-29T07:44:01.620Z,14.05
2023-01-29T07:45:03.259Z,11.75
2023-01-29T07:46:05.123Z,9.13
2023-01-29T07:47:06.830Z,9.05
2023-01-29T07:48:11.058Z,7.07
2023-01-29T07:49:12.653Z,8.25
2023-01-29T07:50:14.412Z,7.18
2023-01-29T07:51:18.226Z,7.18
2023-01-29T07:52:22.193Z,7.18
2023-01-29T07:53:24.032Z,6.15
2023-01-29T07:54:25.685Z,7.95
2023-01-29T07:55:27.332Z,6.22
2023-01-29T07:56:29.004Z,6.22
2023-01-29T07:57:30.714Z,6.38
2023-01-29T07:58:32.974Z,8.35
2023-01-29T07:59:35.517Z,13.60
2023-01-29T08:00:37.164Z,8.70
2023-01-29T08:01:38.780Z,9.52
2023-01-29T08:02:41.357Z,8.60
2023-01-29T08:03:44.255Z,6.28
2023-01-29T08:04:45.871Z,7.18
2023-01-29T08:05:48.002Z,6.50
2023-01-29T08:06:50.360Z,5.10
2023-01-29T08:08:06.223Z,5.45
2023-01-29T08:09:08.912Z,5.95
2023-01-29T08:10:11.187Z,6.65
2023-01-29T08:11:12.904Z,11.02
2023-01-29T08:12:14.575Z,16.30
2023-01-29T08:13:16.188Z,7.38
2023-01-29T08:14:17.864Z,12.40
2023-01-29T08:15:19.452Z,10.52
2023-01-29T08:16:21.085Z,15.98
2023-01-29T08:17:22.755Z,9.98
2023-01-29T08:18:24.380Z,8.85
2023-01-29T08:19:25.982Z,6.20
2023-01-29T08:20:27.640Z,6.63
2023-01-29T08:21:29.278Z,6.22
2023-01-29T08:22:31.013Z,5.45
2023-01-29T08:23:32.659Z,6.53
2023-01-29T08:24:47.679Z,5.97
2023-01-29T08:25:55.934Z,5.45
2023-01-29T08:26:57.598Z,5.45
2023-01-29T08:27:59.524Z,5.40
2023-01-29T08:29:01.138Z,5.00
2023-01-29T08:30:02.888Z,5.80
2023-01-29T08:31:05.207Z,5.50
2023-01-29T08:32:10.270Z,7.00
2023-01-29T08:33:11.947Z,6.55
2023-01-29T08:34:13.565Z,5.15
2023-01-29T08:35:15.171Z,5.80
2023-01-29T08:36:16.944Z,6.35
2023-01-29T08:37:18.575Z,6.82
2023-01-29T08:38:20.235Z,7.68
2023-01-29T08:39:21.884Z,6.20
2023-01-29T08:40:23.619Z,6.18
2023-01-29T08:41:25.331Z,6.00
2023-01-29T08:42:26.926Z,6.97
2023-01-29T08:43:28.572Z,7.15
2023-01-29T08:44:30.225Z,10.18
2023-01-29T08:45:35.941Z,6.32
2023-01-29T08:46:37.555Z,5.60
2023-01-29T08:47:39.196Z,5.78
2023-01-29T08:48:40.919Z,4.88
2023-01-29T08:49:42.512Z,5.63
2023-01-29T08:50:44.155Z,6.00
2023-01-29T08:51:45.772Z,6.78
2023-01-29T08:52:47.373Z,5.78
2023-01-29T08:53:50.607Z,5.68
2023-01-29T08:54:52.288Z,5.75
2023-01-29T08:55:54.054Z,5.45
2023-01-29T08:56:55.691Z,5.60
2023-01-29T08:57:57.453Z,5.35
2023-01-29T08:58:59.250Z,5.20
2023-01-29T09:00:00.975Z,4.85
2023-01-29T09:01:09.566Z,5.22
2023-01-29T09:02:11.436Z,4.60
2023-01-29T09:03:13.090Z,4.82
2023-01-29T09:04:14.714Z,5.85
2023-01-29T09:05:16.739Z,4.57
2023-01-29T09:06:18.820Z,4.57
2023-01-29T09:07:21.883Z,4.68
2023-01-29T09:08:23.476Z,4.30
2023-01-29T09:09:25.105Z,5.20
2023-01-29T09:10:26.958Z,4.43
2023-01-29T09:11:28.572Z,4.68
2023-01-29T09:12:30.189Z,5.05
2023-01-29T09:13:31.867Z,4.90
2023-01-29T09:14:33.474Z,4.95
2023-01-29T09:15:35.216Z,5.13
2023-01-29T09:16:36.976Z,4.30
2023-01-29T09:17:38.575Z,4.88
2023-01-29T09:18:40.171Z,5.93
2023-01-29T09:19:41.834Z,5.47
2023-01-29T09:20:43.586Z,4.55
2023-01-29T09:21:45.242Z,4.63
2023-01-29T09:22:47.124Z,5.70
2023-01-29T09:23:48.751Z,5.35
2023-01-29T09:24:50.362Z,5.15
2023-01-29T09:25:52.025Z,5.17
2023-01-29T09:26:53.667Z,4.63
2023-01-29T09:27:55.334Z,6.22
2023-01-29T09:28:56.948Z,5.05
2023-01-29T09:29:58.663Z,5.00
2023-01-29T09:31:03.586Z,4.95
2023-01-29T09:32:05.594Z,4.28
2023-01-29T09:33:08.755Z,6.00
2023-01-29T09:34:10.414Z,5.67
2023-01-29T09:35:12.068Z,4.90
2023-01-29T09:36:14.632Z,5.35
2023-01-29T09:37:17.736Z,5.63
2023-01-29T09:38:19.473Z,5.75
2023-01-29T09:39:21.107Z,6.72
2023-01-29T09:40:38.561Z,11.48
2023-01-29T09:42:08.566Z,9.10
2023-01-29T09:43:18.440Z,10.82
2023-01-29T09:44:53.874Z,9.15
2023-01-29T09:45:58.271Z,7.95
2023-01-29T09:47:00.603Z,11.57
2023-01-29T09:48:03.286Z,10.88
2023-01-29T09:49:25.961Z,13.70
2023-01-29T09:50:37.562Z,12.83
2023-01-29T09:51:41.487Z,18.23
2023-01-29T09:52:46.805Z,9.85
2023-01-29T09:54:17.196Z,7.25
2023-01-29T09:55:42.414Z,7.20
2023-01-29T09:56:44.053Z,7.80
2023-01-29T09:57:58.477Z,7.68
2023-01-29T09:59:01.710Z,7.13
2023-01-29T10:00:03.838Z,6.57
2023-01-29T10:01:28.025Z,6.43
2023-01-29T10:02:46.458Z,5.15
2023-01-29T10:04:38.455Z,5.72
2023-01-29T10:05:45.807Z,5.88
2023-01-29T10:06:58.839Z,5.22
2023-01-29T10:08:13.444Z,7.60
2023-01-29T10:10:06.318Z,7.72
2023-01-29T10:11:33.145Z,6.75
2023-01-29T10:12:43.832Z,6.53
2023-01-29T10:14:02.743Z,6.90
2023-01-29T10:15:20.027Z,5.97
2023-01-29T10:16:54.558Z,21.92
2023-01-29T10:18:05.064Z,11.15
2023-01-29T10:19:27.865Z,13.57
2023-01-29T10:20:54.376Z,12.48
2023-01-29T10:22:15.355Z,9.15
2023-01-29T10:23:28.879Z,12.75
2023-01-29T10:24:53.839Z,9.38
2023-01-29T10:25:55.717Z,9.20
2023-01-29T10:26:57.380Z,7.95
2023-01-29T10:27:59.163Z,7.10
2023-01-29T10:29:00.856Z,5.32
2023-01-29T10:30:04.232Z,6.78
2023-01-29T10:31:28.068Z,4.90
2023-01-29T10:32:29.821Z,5.05
2023-01-29T10:33:49.284Z,5.00
2023-01-29T10:35:03.841Z,5.05
2023-01-29T10:36:08.280Z,7.35
2023-01-29T10:37:22.793Z,7.80
2023-01-29T10:38:45.939Z,6.85
2023-01-29T10:39:47.597Z,5.82
2023-01-29T10:41:12.084Z,7.00
2023-01-29T10:42:24.503Z,5.30
2023-01-29T10:43:44.229Z,6.78
2023-01-29T10:44:58.463Z,6.13
2023-01-29T10:46:09.794Z,5.88
2023-01-29T10:47:41.173Z,6.78
2023-01-29T10:48:51.854Z,7.82
2023-01-29T10:50:11.543Z,6.75
2023-01-29T10:52:08.336Z,6.93
2023-01-29T10:53:32.254Z,7.28
2023-01-29T10:54:54.709Z,6.05
2023-01-29T10:56:05.815Z,4.88
2023-01-29T10:57:12.455Z,6.55
2023-01-29T10:58:26.116Z,8.07
2023-01-29T10:59:49.741Z,9.52
2023-01-29T11:00:51.663Z,7.53
2023-01-29T11:01:59.338Z,6.70
2023-01-29T11:03:01.124Z,8.50
2023-01-29T11:04:04.274Z,7.87
2023-01-29T11:05:29.570Z,8.48
2023-01-29T11:06:35.380Z,6.97
2023-01-29T11:07:36.980Z,7.85
2023-01-29T11:08:41.149Z,6.88
2023-01-29T11:09:46.621Z,10.07
2023-01-29T11:10:59.663Z,5.07
2023-01-29T11:12:11.581Z,10.45
2023-01-29T11:13:14.567Z,5.37
2023-01-29T11:14:35.214Z,5.50
2023-01-29T11:15:36.880Z,4.97
2023-01-29T11:16:45.873Z,6.90
2023-01-29T11:18:15.991Z,5.13
2023-01-29T11:19:17.716Z,4.85
2023-01-29T11:20:27.176Z,6.07
2023-01-29T11:21:29.409Z,5.25
2023-01-29T11:22:31.076Z,4.90
2023-01-29T11:23:33.617Z,5.75
2023-01-29T11:24:35.219Z,4.28
2023-01-29T11:25:36.993Z,4.95
2023-01-29T11:26:40.047Z,5.00
2023-01-29T11:27:49.706Z,5.15
2023-01-29T11:28:51.789Z,5.10
2023-01-29T11:29:53.794Z,5.47
2023-01-29T11:30:55.727Z,4.90
2023-01-29T11:31:58.165Z,5.60
2023-01-29T11:33:09.763Z,5.57
2023-01-29T11:34:21.020Z,6.40
2023-01-29T11:35:24.862Z,5.35
2023-01-29T11:36:38.301Z,5.03
2023-01-29T11:37:41.122Z,3.97
2023-01-29T11:38:42.769Z,4.20
2023-01-29T11:39:47.198Z,5.78
2023-01-29T11:40:48.887Z,4.70
2023-01-29T11:41:55.479Z,3.55
2023-01-29T11:42:57.375Z,3.78
2023-01-29T11:43:59.921Z,3.78
2023-01-29T11:45:01.593Z,3.50
2023-01-29T11:46:07.361Z,4.32
2023-01-29T11:47:14.810Z,4.45
2023-01-29T11:48:21.105Z,4.05
2023-01-29T11:49:34.186Z,4.05
2023-01-29T11:50:36.091Z,4.18
2023-01-29T11:51:37.879Z,4.53
2023-01-29T11:52:41.042Z,4.40
2023-01-29T11:53:44.792Z,5.50
2023-01-29T11:54:50.879Z,4.10
2023-01-29T11:55:52.589Z,4.60
2023-01-29T11:56:54.612Z,5.90
2023-01-29T11:58:11.604Z,3.87
2023-01-29T11:59:37.432Z,4.70
2023-01-29T12:00:39.632Z,4.28
2023-01-29T12:01:41.305Z,5.05
2023-01-29T12:02:44.222Z,4.32
2023-01-29T12:03:52.181Z,4.20
2023-01-29T12:05:07.103Z,4.53
2023-01-29T12:06:16.131Z,4.72
2023-01-29T12:07:18.378Z,4.80
2023-01-29T12:08:22.953Z,5.10
2023-01-29T12:09:29.696Z,4.72
2023-01-29T12:10:39.375Z,4.60
2023-01-29T12:11:41.288Z,7.00
2023-01-29T12:12:43.420Z,5.07
2023-01-29T12:13:45.276Z,4.75
2023-01-29T12:14:47.109Z,5.70
2023-01-29T12:15:49.050Z,4.28
2023-01-29T12:17:15.263Z,4.18
2023-01-29T12:18:20.804Z,4.65
2023-01-29T12:19:43.800Z,4.93
2023-01-29T12:20:48.564Z,4.43
2023-01-29T12:21:58.272Z,3.80
2023-01-29T12:23:11.195Z,4.18
2023-01-29T12:24:41.894Z,4.28
2023-01-29T12:26:09.784Z,3.85
2023-01-29T12:27:22.502Z,4.85
2023-01-29T12:28:32.029Z,5.05
2023-01-29T12:29:48.834Z,5.30
2023-01-29T12:30:59.362Z,4.90
2023-01-29T12:32:07.122Z,4.25
2023-01-29T12:33:27.246Z,4.50
2023-01-29T12:34:39.575Z,4.73
2023-01-29T12:35:54.743Z,4.45
2023-01-29T12:37:19.921Z,4.60
2023-01-29T12:38:23.172Z,4.28
2023-01-29T12:39:25.154Z,4.13
2023-01-29T12:40:30.093Z,4.75
2023-01-29T12:41:40.960Z,4.30
2023-01-29T12:42:45.155Z,4.68
2023-01-29T12:43:48.740Z,4.23
2023-01-29T12:44:57.895Z,4.28
2023-01-29T12:45:59.649Z,4.43
2023-01-29T12:47:02.337Z,4.30
2023-01-29T12:48:09.116Z,4.85
2023-01-29T12:49:14.605Z,4.95
2023-01-29T12:50:22.281Z,4.18
2023-01-29T12:51:45.001Z,4.57
2023-01-29T12:52:50.142Z,3.80
2023-01-29T12:53:57.659Z,5.20
2023-01-29T12:55:29.675Z,4.22
2023-01-29T12:57:04.537Z,4.00
2023-01-29T12:58:20.149Z,3.67
2023-01-29T12:59:42.959Z,4.30
2023-01-29T13:00:46.331Z,4.53
2023-01-29T13:01:56.555Z,4.95
2023-01-29T13:03:23.411Z,4.97
2023-01-29T13:04:38.349Z,4.70
2023-01-29T13:06:06.133Z,4.60
2023-01-29T13:07:18.974Z,4.55
2023-01-29T13:08:39.788Z,4.43
2023-01-29T13:09:43.787Z,4.63
2023-01-29T13:10:48.480Z,5.03
2023-01-29T13:12:07.872Z,4.78
2023-01-29T13:13:16.783Z,5.30
2023-01-29T13:14:21.055Z,4.82
2023-01-29T13:15:26.639Z,4.57
2023-01-29T13:16:30.929Z,4.53
2023-01-29T13:17:41.460Z,4.78
2023-01-29T13:18:55.184Z,5.40
2023-01-29T13:19:59.773Z,5.72
2023-01-29T13:21:01.693Z,5.68
2023-01-29T13:22:05.583Z,4.77
2023-01-29T13:23:18.491Z,5.05
2023-01-29T13:24:21.891Z,4.93
2023-01-29T13:25:23.718Z,5.20
2023-01-29T13:26:26.752Z,4.97
2023-01-29T13:27:37.224Z,4.75
2023-01-29T13:28:39.416Z,5.65
2023-01-29T13:29:41.462Z,8.38
2023-01-29T13:30:43.770Z,7.83
2023-01-29T13:31:49.599Z,6.40
2023-01-29T13:32:52.457Z,5.53
2023-01-29T13:33:58.182Z,6.20
2023-01-29T13:35:12.888Z,6.70
2023-01-29T13:36:16.640Z,7.28
2023-01-29T13:37:30.005Z,6.45
2023-01-29T13:38:33.599Z,5.18
2023-01-29T13:39:44.700Z,5.15
2023-01-29T13:40:49.410Z,4.87
2023-01-29T13:41:51.624Z,4.82
2023-01-29T13:42:54.446Z,5.65
2023-01-29T13:43:56.118Z,6.15
2023-01-29T13:44:58.244Z,6.20
2023-01-29T13:46:00.133Z,6.55
2023-01-29T13:47:12.048Z,6.22
2023-01-29T13:48:28.928Z,6.47
2023-01-29T13:49:35.977Z,5.43
2023-01-29T13:50:39.251Z,6.25
2023-01-29T13:51:40.891Z,8.55
2023-01-29T13:52:46.240Z,11.32
2023-01-29T13:53:57.782Z,7.53
2023-01-29T13:55:20.106Z,12.85
2023-01-29T13:57:00.670Z,12.43
2023-01-29T13:58:03.542Z,7.72
2023-01-29T13:59:05.973Z,12.13
2023-01-29T14:00:22.661Z,7.85
2023-01-29T14:02:04.136Z,12.23
2023-01-29T14:03:11.363Z,20.95
2023-01-29T14:04:19.028Z,16.85
2023-01-29T14:05:30.236Z,10.80
2023-01-29T14:06:40.559Z,18.73
2023-01-29T14:07:45.027Z,12.32
2023-01-29T14:08:47.557Z,15.00
2023-01-29T14:09:49.263Z,13.40
2023-01-29T14:11:13.415Z,19.90
2023-01-29T14:12:25.757Z,7.15
2023-01-29T14:13:28.807Z,7.00
2023-01-29T14:14:49.020Z,10.48
2023-01-29T14:15:56.983Z,8.35
2023-01-29T14:17:01.955Z,5.75
2023-01-29T14:18:18.677Z,9.70
2023-01-29T14:19:20.787Z,6.93
2023-01-29T14:20:27.687Z,6.47
2023-01-29T14:21:35.222Z,8.30
2023-01-29T14:22:38.146Z,6.80
2023-01-29T14:23:57.239Z,6.72
2023-01-29T14:25:02.110Z,6.68
2023-01-29T14:26:26.322Z,7.63
2023-01-29T14:27:28.286Z,8.43
2023-01-29T14:28:31.032Z,8.60
2023-01-29T14:29:38.277Z,7.38
2023-01-29T14:30:41.452Z,7.32
2023-01-29T14:32:00.909Z,6.57
2023-01-29T14:33:03.674Z,7.90
2023-01-29T14:34:27.285Z,9.73
2023-01-29T14:35:31.200Z,8.95
2023-01-29T14:36:42.427Z,12.43
2023-01-29T14:37:49.754Z,8.52
2023-01-29T14:38:52.751Z,6.65
2023-01-29T14:39:58.140Z,8.43
2023-01-29T14:41:06.207Z,10.45
2023-01-29T14:42:18.592Z,8.93
2023-01-29T14:43:21.315Z,7.28
2023-01-29T14:44:45.198Z,7.18
2023-01-29T14:45:50.361Z,8.63
2023-01-29T14:46:52.315Z,7.63
2023-01-29T14:48:01.802Z,6.50